sensor_id;sensor_type;location;lat;lon;timestamp;temperature;humidity
40638;DHT22;26336;44.696;10.622;2023-04-29T00:03:05;16.80;99.90
40638;DHT22;26336;44.696;10.622;2023-04-29T00:06:09;16.80;99.90
40638;DHT22;26336;44.696;10.622;2023-04-29T00:09:13;16.80;99.90
40638;DHT22;26336;44.696;10.622;2023-04-29T00:12:17;16.80;99.90
40638;DHT22;26336;44.696;10.622;2023-04-29T00:15:21;16.70;99.90
40638;DHT22;26336;44.696;10.622;2023-04-29T00:18:25;16.70;99.90
40638;DHT22;26336;44.696;10.622;2023-04-29T00:21:30;16.70;99.90
40638;DHT22;26336;44.696;10.622;2023-04-29T00:24:37;16.70;99.90
40638;DHT22;26336;44.696;10.622;2023-04-29T00:27:41;16.70;99.90
40638;DHT22;26336;44.696;10.622;2023-04-29T00:30:45;16.60;99.90
40638;DHT22;26336;44.696;10.622;2023-04-29T00:33:49;16.70;99.90
40638;DHT22;26336;44.696;10.622;2023-04-29T00:36:52;16.70;99.90
40638;DHT22;26336;44.696;10.622;2023-04-29T00:39:58;16.70;99.90
40638;DHT22;26336;44.696;10.622;2023-04-29T00:43:03;16.70;99.90
40638;DHT22;26336;44.696;10.622;2023-04-29T00:46:07;16.60;99.90
40638;DHT22;26336;44.696;10.622;2023-04-29T00:49:11;16.50;99.90
40638;DHT22;26336;44.696;10.622;2023-04-29T00:52:19;16.50;99.90
40638;DHT22;26336;44.696;10.622;2023-04-29T00:55:23;16.50;99.90
40638;DHT22;26336;44.696;10.622;2023-04-29T00:58:29;16.50;99.90
40638;DHT22;26336;44.696;10.622;2023-04-29T01:01:36;16.50;99.90
40638;DHT22;26336;44.696;10.622;2023-04-29T01:04:40;16.50;99.90
40638;DHT22;26336;44.696;10.622;2023-04-29T01:14:07;16.50;99.90
40638;DHT22;26336;44.696;10.622;2023-04-29T01:17:14;16.50;99.90
40638;DHT22;26336;44.696;10.622;2023-04-29T01:20:21;16.40;99.90
40638;DHT22;26336;44.696;10.622;2023-04-29T01:23:26;16.50;99.90
40638;DHT22;26336;44.696;10.622;2023-04-29T01:26:30;16.50;99.90
40638;DHT22;26336;44.696;10.622;2023-04-29T01:30:01;16.40;99.90
40638;DHT22;26336;44.696;10.622;2023-04-29T01:36:51;16.40;99.90
40638;DHT22;26336;44.696;10.622;2023-04-29T01:39:58;16.30;99.90
40638;DHT22;26336;44.696;10.622;2023-04-29T01:43:08;16.20;99.90
40638;DHT22;26336;44.696;10.622;2023-04-29T01:46:16;16.30;99.90
40638;DHT22;26336;44.696;10.622;2023-04-29T01:49:25;16.30;99.90
40638;DHT22;26336;44.696;10.622;2023-04-29T01:52:28;16.30;99.90
40638;DHT22;26336;44.696;10.622;2023-04-29T01:55:33;16.40;99.90
40638;DHT22;26336;44.696;10.622;2023-04-29T01:58:57;16.30;99.90
40638;DHT22;26336;44.696;10.622;2023-04-29T02:02:10;16.30;99.90
40638;DHT22;26336;44.696;10.622;2023-04-29T02:05:20;16.30;99.90
40638;DHT22;26336;44.696;10.622;2023-04-29T02:08:31;16.30;99.90
40638;DHT22;26336;44.696;10.622;2023-04-29T02:11:39;16.30;99.90
40638;DHT22;26336;44.696;10.622;2023-04-29T02:14:43;16.30;99.90
40638;DHT22;26336;44.696;10.622;2023-04-29T02:17:46;16.30;99.90
40638;DHT22;26336;44.696;10.622;2023-04-29T02:20:50;16.30;99.90
40638;DHT22;26336;44.696;10.622;2023-04-29T02:23:55;16.30;99.90
40638;DHT22;26336;44.696;10.622;2023-04-29T02:27:00;16.30;99.90
40638;DHT22;26336;44.696;10.622;2023-04-29T02:30:08;16.30;99.90
40638;DHT22;26336;44.696;10.622;2023-04-29T02:33:12;16.30;99.90
40638;DHT22;26336;44.696;10.622;2023-04-29T02:36:16;16.20;99.90
40638;DHT22;26336;44.696;10.622;2023-04-29T02:39:21;16.20;99.90
40638;DHT22;26336;44.696;10.622;2023-04-29T02:42:25;16.20;99.90
40638;DHT22;26336;44.696;10.622;2023-04-29T02:45:29;16.10;99.90
40638;DHT22;26336;44.696;10.622;2023-04-29T02:48:33;16.20;99.90
40638;DHT22;26336;44.696;10.622;2023-04-29T02:51:37;16.20;99.90
40638;DHT22;26336;44.696;10.622;2023-04-29T02:54:41;16.20;99.90
40638;DHT22;26336;44.696;10.622;2023-04-29T02:57:45;16.20;99.90
40638;DHT22;26336;44.696;10.622;2023-04-29T03:00:49;16.10;99.90
40638;DHT22;26336;44.696;10.622;2023-04-29T03:03:53;16.20;99.90
40638;DHT22;26336;44.696;10.622;2023-04-29T03:06:57;16.10;99.90
40638;DHT22;26336;44.696;10.622;2023-04-29T03:10:03;16.20;99.90
40638;DHT22;26336;44.696;10.622;2023-04-29T03:13:07;16.10;99.90
40638;DHT22;26336;44.696;10.622;2023-04-29T03:16:12;16.10;99.90
40638;DHT22;26336;44.696;10.622;2023-04-29T03:19:17;16.10;99.90
40638;DHT22;26336;44.696;10.622;2023-04-29T03:22:21;16.10;99.90
40638;DHT22;26336;44.696;10.622;2023-04-29T03:25:25;16.10;99.90
40638;DHT22;26336;44.696;10.622;2023-04-29T03:28:29;16.10;99.90
40638;DHT22;26336;44.696;10.622;2023-04-29T03:31:33;16.10;99.90
40638;DHT22;26336;44.696;10.622;2023-04-29T03:34:37;16.10;99.90
40638;DHT22;26336;44.696;10.622;2023-04-29T03:37:59;16.00;99.90
40638;DHT22;26336;44.696;10.622;2023-04-29T03:41:07;16.00;99.90
40638;DHT22;26336;44.696;10.622;2023-04-29T03:44:11;16.00;99.90
40638;DHT22;26336;44.696;10.622;2023-04-29T03:47:16;16.00;99.90
40638;DHT22;26336;44.696;10.622;2023-04-29T03:50:20;16.00;99.90
40638;DHT22;26336;44.696;10.622;2023-04-29T03:53:24;16.00;99.90
40638;DHT22;26336;44.696;10.622;2023-04-29T03:56:28;16.00;99.90
40638;DHT22;26336;44.696;10.622;2023-04-29T03:59:33;16.00;99.90
40638;DHT22;26336;44.696;10.622;2023-04-29T04:02:37;16.00;99.90
40638;DHT22;26336;44.696;10.622;2023-04-29T04:05:41;16.00;99.90
40638;DHT22;26336;44.696;10.622;2023-04-29T04:08:54;16.00;99.90
40638;DHT22;26336;44.696;10.622;2023-04-29T04:12:05;15.90;99.90
40638;DHT22;26336;44.696;10.622;2023-04-29T04:15:09;15.90;99.90
40638;DHT22;26336;44.696;10.622;2023-04-29T04:18:13;15.90;99.90
40638;DHT22;26336;44.696;10.622;2023-04-29T04:21:17;15.80;99.90
40638;DHT22;26336;44.696;10.622;2023-04-29T04:24:25;15.80;99.90
40638;DHT22;26336;44.696;10.622;2023-04-29T04:27:29;15.80;99.90
40638;DHT22;26336;44.696;10.622;2023-04-29T04:30:36;15.80;99.90
40638;DHT22;26336;44.696;10.622;2023-04-29T04:33:40;15.80;99.90
40638;DHT22;26336;44.696;10.622;2023-04-29T04:36:44;15.80;99.90
40638;DHT22;26336;44.696;10.622;2023-04-29T04:39:48;15.80;99.90
40638;DHT22;26336;44.696;10.622;2023-04-29T04:42:53;15.80;99.90
40638;DHT22;26336;44.696;10.622;2023-04-29T04:45:57;15.80;99.90
40638;DHT22;26336;44.696;10.622;2023-04-29T04:49:10;15.70;99.90
40638;DHT22;26336;44.696;10.622;2023-04-29T04:52:20;15.80;99.90
40638;DHT22;26336;44.696;10.622;2023-04-29T04:55:31;15.80;99.90
40638;DHT22;26336;44.696;10.622;2023-04-29T04:58:39;15.70;99.90
40638;DHT22;26336;44.696;10.622;2023-04-29T05:01:43;15.70;99.90
40638;DHT22;26336;44.696;10.622;2023-04-29T05:04:47;15.70;99.90
40638;DHT22;26336;44.696;10.622;2023-04-29T05:07:53;15.80;99.90
40638;DHT22;26336;44.696;10.622;2023-04-29T05:11:03;15.80;99.90
40638;DHT22;26336;44.696;10.622;2023-04-29T05:14:07;15.80;99.90
40638;DHT22;26336;44.696;10.622;2023-04-29T05:17:17;15.80;99.90
40638;DHT22;26336;44.696;10.622;2023-04-29T05:20:21;15.70;99.90
40638;DHT22;26336;44.696;10.622;2023-04-29T05:23:25;15.70;99.90
40638;DHT22;26336;44.696;10.622;2023-04-29T05:26:31;15.80;99.90
40638;DHT22;26336;44.696;10.622;2023-04-29T05:29:37;15.70;99.90
40638;DHT22;26336;44.696;10.622;2023-04-29T05:32:42;15.70;99.90
40638;DHT22;26336;44.696;10.622;2023-04-29T05:35:50;15.80;99.90
40638;DHT22;26336;44.696;10.622;2023-04-29T05:38:54;15.80;99.90
40638;DHT22;26336;44.696;10.622;2023-04-29T05:41:58;15.80;99.90
40638;DHT22;26336;44.696;10.622;2023-04-29T05:45:11;15.80;99.90
40638;DHT22;26336;44.696;10.622;2023-04-29T05:48:15;15.80;99.90
40638;DHT22;26336;44.696;10.622;2023-04-29T05:51:21;15.80;99.90
40638;DHT22;26336;44.696;10.622;2023-04-29T05:54:26;15.80;99.90
40638;DHT22;26336;44.696;10.622;2023-04-29T05:57:30;15.80;99.90
40638;DHT22;26336;44.696;10.622;2023-04-29T06:00:34;15.80;99.90
40638;DHT22;26336;44.696;10.622;2023-04-29T06:03:46;15.80;99.90
40638;DHT22;26336;44.696;10.622;2023-04-29T06:07:08;15.70;99.90
40638;DHT22;26336;44.696;10.622;2023-04-29T06:10:25;15.70;99.90
40638;DHT22;26336;44.696;10.622;2023-04-29T06:13:31;15.80;99.90
40638;DHT22;26336;44.696;10.622;2023-04-29T06:16:37;15.80;99.90
40638;DHT22;26336;44.696;10.622;2023-04-29T06:19:41;15.90;99.90
40638;DHT22;26336;44.696;10.622;2023-04-29T06:22:46;15.90;99.90
40638;DHT22;26336;44.696;10.622;2023-04-29T06:25:50;15.90;99.90
40638;DHT22;26336;44.696;10.622;2023-04-29T06:28:55;16.00;99.90
40638;DHT22;26336;44.696;10.622;2023-04-29T06:32:02;16.00;99.90
40638;DHT22;26336;44.696;10.622;2023-04-29T06:35:06;16.00;99.90
40638;DHT22;26336;44.696;10.622;2023-04-29T06:38:33;16.00;99.90
40638;DHT22;26336;44.696;10.622;2023-04-29T06:41:57;16.00;99.90
40638;DHT22;26336;44.696;10.622;2023-04-29T06:45:36;15.90;99.90
40638;DHT22;26336;44.696;10.622;2023-04-29T06:48:45;15.90;99.90
40638;DHT22;26336;44.696;10.622;2023-04-29T06:51:48;16.00;99.90
40638;DHT22;26336;44.696;10.622;2023-04-29T06:54:52;16.00;99.90
40638;DHT22;26336;44.696;10.622;2023-04-29T06:57:56;16.10;99.90
40638;DHT22;26336;44.696;10.622;2023-04-29T07:00:59;16.10;99.90
40638;DHT22;26336;44.696;10.622;2023-04-29T07:04:05;16.20;99.90
40638;DHT22;26336;44.696;10.622;2023-04-29T07:07:09;16.20;99.90
40638;DHT22;26336;44.696;10.622;2023-04-29T07:10:14;16.30;99.90
40638;DHT22;26336;44.696;10.622;2023-04-29T07:13:18;16.30;99.90
40638;DHT22;26336;44.696;10.622;2023-04-29T07:16:22;16.40;99.90
40638;DHT22;26336;44.696;10.622;2023-04-29T07:19:29;16.40;99.90
40638;DHT22;26336;44.696;10.622;2023-04-29T07:22:33;16.50;99.90
40638;DHT22;26336;44.696;10.622;2023-04-29T07:25:37;16.50;99.90
40638;DHT22;26336;44.696;10.622;2023-04-29T07:28:42;16.60;99.90
40638;DHT22;26336;44.696;10.622;2023-04-29T07:31:46;16.60;99.90
40638;DHT22;26336;44.696;10.622;2023-04-29T07:34:50;16.70;99.90
40638;DHT22;26336;44.696;10.622;2023-04-29T07:37:55;16.70;99.90
40638;DHT22;26336;44.696;10.622;2023-04-29T07:40:59;16.70;99.90
40638;DHT22;26336;44.696;10.622;2023-04-29T07:44:03;16.80;99.90
40638;DHT22;26336;44.696;10.622;2023-04-29T07:47:07;16.80;99.90
40638;DHT22;26336;44.696;10.622;2023-04-29T07:50:11;16.80;99.90
40638;DHT22;26336;44.696;10.622;2023-04-29T07:53:16;16.90;99.90
40638;DHT22;26336;44.696;10.622;2023-04-29T07:56:20;16.90;99.90
40638;DHT22;26336;44.696;10.622;2023-04-29T07:59:25;16.90;99.90
40638;DHT22;26336;44.696;10.622;2023-04-29T08:02:29;16.90;99.90
40638;DHT22;26336;44.696;10.622;2023-04-29T08:05:33;17.00;99.90
40638;DHT22;26336;44.696;10.622;2023-04-29T08:08:37;17.00;99.90
40638;DHT22;26336;44.696;10.622;2023-04-29T08:11:41;17.10;99.90
40638;DHT22;26336;44.696;10.622;2023-04-29T08:14:49;17.10;99.90
40638;DHT22;26336;44.696;10.622;2023-04-29T08:17:53;17.10;99.90
40638;DHT22;26336;44.696;10.622;2023-04-29T08:20:57;17.20;99.90
40638;DHT22;26336;44.696;10.622;2023-04-29T08:24:01;17.20;99.90
40638;DHT22;26336;44.696;10.622;2023-04-29T08:27:05;17.20;99.90
40638;DHT22;26336;44.696;10.622;2023-04-29T08:30:09;17.20;99.90
40638;DHT22;26336;44.696;10.622;2023-04-29T08:33:16;17.20;99.90
40638;DHT22;26336;44.696;10.622;2023-04-29T08:36:20;17.20;99.90
40638;DHT22;26336;44.696;10.622;2023-04-29T08:39:24;17.20;99.90
40638;DHT22;26336;44.696;10.622;2023-04-29T08:42:31;17.20;99.90
40638;DHT22;26336;44.696;10.622;2023-04-29T08:45:35;17.30;99.90
40638;DHT22;26336;44.696;10.622;2023-04-29T08:48:39;17.30;99.90
40638;DHT22;26336;44.696;10.622;2023-04-29T08:51:43;17.40;99.90
40638;DHT22;26336;44.696;10.622;2023-04-29T08:54:47;17.40;99.90
40638;DHT22;26336;44.696;10.622;2023-04-29T08:57:53;17.50;99.90
40638;DHT22;26336;44.696;10.622;2023-04-29T09:00:57;17.40;99.90
40638;DHT22;26336;44.696;10.622;2023-04-29T09:07:24;17.50;99.90
40638;DHT22;26336;44.696;10.622;2023-04-29T09:10:29;17.50;99.90
40638;DHT22;26336;44.696;10.622;2023-04-29T09:13:33;17.50;99.90
40638;DHT22;26336;44.696;10.622;2023-04-29T09:16:37;17.50;99.90
40638;DHT22;26336;44.696;10.622;2023-04-29T09:19:41;17.50;99.90
40638;DHT22;26336;44.696;10.622;2023-04-29T09:22:47;17.50;99.90
40638;DHT22;26336;44.696;10.622;2023-04-29T09:25:55;17.40;99.90
40638;DHT22;26336;44.696;10.622;2023-04-29T09:29:06;17.40;99.90
40638;DHT22;26336;44.696;10.622;2023-04-29T09:32:18;17.40;99.90
40638;DHT22;26336;44.696;10.622;2023-04-29T09:35:24;17.50;99.90
40638;DHT22;26336;44.696;10.622;2023-04-29T09:38:28;17.50;99.90
40638;DHT22;26336;44.696;10.622;2023-04-29T09:41:32;17.40;99.90
40638;DHT22;26336;44.696;10.622;2023-04-29T09:44:40;17.40;99.90
40638;DHT22;26336;44.696;10.622;2023-04-29T09:47:44;17.50;99.90
40638;DHT22;26336;44.696;10.622;2023-04-29T09:50:58;17.50;99.90
40638;DHT22;26336;44.696;10.622;2023-04-29T09:54:10;17.50;99.90
40638;DHT22;26336;44.696;10.622;2023-04-29T09:57:22;17.50;99.90
40638;DHT22;26336;44.696;10.622;2023-04-29T10:00:41;17.50;99.90
40638;DHT22;26336;44.696;10.622;2023-04-29T10:03:45;17.50;99.90
40638;DHT22;26336;44.696;10.622;2023-04-29T10:06:54;17.50;99.90
40638;DHT22;26336;44.696;10.622;2023-04-29T10:09:59;17.40;99.90
40638;DHT22;26336;44.696;10.622;2023-04-29T10:13:02;17.30;99.90
40638;DHT22;26336;44.696;10.622;2023-04-29T10:19:34;17.30;99.90
40638;DHT22;26336;44.696;10.622;2023-04-29T10:22:45;17.30;99.90
40638;DHT22;26336;44.696;10.622;2023-04-29T10:25:50;17.30;99.90
40638;DHT22;26336;44.696;10.622;2023-04-29T10:28:55;17.30;99.90
40638;DHT22;26336;44.696;10.622;2023-04-29T10:31:59;17.20;99.90
40638;DHT22;26336;44.696;10.622;2023-04-29T10:35:03;17.20;99.90
40638;DHT22;26336;44.696;10.622;2023-04-29T10:38:10;17.30;99.90
40638;DHT22;26336;44.696;10.622;2023-04-29T10:41:18;17.30;99.90
40638;DHT22;26336;44.696;10.622;2023-04-29T10:44:23;17.40;99.90
40638;DHT22;26336;44.696;10.622;2023-04-29T10:47:27;17.40;99.90
40638;DHT22;26336;44.696;10.622;2023-04-29T10:50:32;17.40;99.90
40638;DHT22;26336;44.696;10.622;2023-04-29T10:53:58;17.40;99.90
40638;DHT22;26336;44.696;10.622;2023-04-29T10:56:59;17.40;99.90
40638;DHT22;26336;44.696;10.622;2023-04-29T11:00:04;17.40;99.90
40638;DHT22;26336;44.696;10.622;2023-04-29T11:03:08;17.40;99.90
40638;DHT22;26336;44.696;10.622;2023-04-29T11:09:39;17.60;99.90
40638;DHT22;26336;44.696;10.622;2023-04-29T11:12:43;17.70;99.90
40638;DHT22;26336;44.696;10.622;2023-04-29T11:15:50;17.70;99.90
40638;DHT22;26336;44.696;10.622;2023-04-29T11:19:03;17.60;99.90
40638;DHT22;26336;44.696;10.622;2023-04-29T11:25:18;17.80;99.90
40638;DHT22;26336;44.696;10.622;2023-04-29T11:28:26;17.80;99.90
40638;DHT22;26336;44.696;10.622;2023-04-29T11:31:30;18.00;99.90
40638;DHT22;26336;44.696;10.622;2023-04-29T11:34:53;18.00;99.90
40638;DHT22;26336;44.696;10.622;2023-04-29T11:37:57;18.10;99.90
40638;DHT22;26336;44.696;10.622;2023-04-29T11:41:02;18.20;99.90
40638;DHT22;26336;44.696;10.622;2023-04-29T11:44:06;18.40;99.90
40638;DHT22;26336;44.696;10.622;2023-04-29T11:47:10;18.50;99.90
40638;DHT22;26336;44.696;10.622;2023-04-29T11:50:16;18.50;99.90
40638;DHT22;26336;44.696;10.622;2023-04-29T11:53:23;18.50;99.90
40638;DHT22;26336;44.696;10.622;2023-04-29T11:56:28;18.40;99.90
40638;DHT22;26336;44.696;10.622;2023-04-29T11:59:32;18.40;99.90
40638;DHT22;26336;44.696;10.622;2023-04-29T12:02:36;18.40;99.90
40638;DHT22;26336;44.696;10.622;2023-04-29T12:05:50;18.40;99.90
40638;DHT22;26336;44.696;10.622;2023-04-29T12:08:57;18.30;99.90
40638;DHT22;26336;44.696;10.622;2023-04-29T12:12:01;18.30;99.90
40638;DHT22;26336;44.696;10.622;2023-04-29T12:15:06;18.20;99.90
40638;DHT22;26336;44.696;10.622;2023-04-29T12:18:10;18.20;99.90
40638;DHT22;26336;44.696;10.622;2023-04-29T12:21:14;18.20;99.90
40638;DHT22;26336;44.696;10.622;2023-04-29T12:24:19;18.20;99.90
40638;DHT22;26336;44.696;10.622;2023-04-29T12:27:24;18.20;99.90
40638;DHT22;26336;44.696;10.622;2023-04-29T12:30:29;18.30;99.90
40638;DHT22;26336;44.696;10.622;2023-04-29T12:33:34;18.40;99.90
40638;DHT22;26336;44.696;10.622;2023-04-29T12:36:40;18.40;99.90
40638;DHT22;26336;44.696;10.622;2023-04-29T12:39:48;18.40;99.90
40638;DHT22;26336;44.696;10.622;2023-04-29T12:42:52;18.50;99.90
40638;DHT22;26336;44.696;10.622;2023-04-29T12:49:06;18.60;99.90
40638;DHT22;26336;44.696;10.622;2023-04-29T12:52:11;18.50;99.90
40638;DHT22;26336;44.696;10.622;2023-04-29T12:55:15;18.40;99.90
40638;DHT22;26336;44.696;10.622;2023-04-29T12:58:19;18.40;99.90
40638;DHT22;26336;44.696;10.622;2023-04-29T13:01:23;18.50;99.90
40638;DHT22;26336;44.696;10.622;2023-04-29T13:04:27;18.60;99.90
40638;DHT22;26336;44.696;10.622;2023-04-29T13:07:30;18.70;99.90
40638;DHT22;26336;44.696;10.622;2023-04-29T13:10:34;18.70;99.90
40638;DHT22;26336;44.696;10.622;2023-04-29T13:13:41;18.80;99.90
40638;DHT22;26336;44.696;10.622;2023-04-29T13:16:45;18.90;99.90
40638;DHT22;26336;44.696;10.622;2023-04-29T13:19:49;19.00;99.90
40638;DHT22;26336;44.696;10.622;2023-04-29T13:22:53;19.00;99.90
40638;DHT22;26336;44.696;10.622;2023-04-29T13:25:57;19.00;99.90
40638;DHT22;26336;44.696;10.622;2023-04-29T13:29:01;19.00;99.90
40638;DHT22;26336;44.696;10.622;2023-04-29T13:32:05;19.10;99.90
40638;DHT22;26336;44.696;10.622;2023-04-29T13:35:10;19.10;99.90
40638;DHT22;26336;44.696;10.622;2023-04-29T13:38:17;19.10;99.90
40638;DHT22;26336;44.696;10.622;2023-04-29T13:41:21;19.20;99.90
40638;DHT22;26336;44.696;10.622;2023-04-29T13:44:25;19.20;99.90
40638;DHT22;26336;44.696;10.622;2023-04-29T13:47:29;19.20;99.90
40638;DHT22;26336;44.696;10.622;2023-04-29T13:50:34;19.30;99.90
40638;DHT22;26336;44.696;10.622;2023-04-29T13:53:41;19.30;99.90
40638;DHT22;26336;44.696;10.622;2023-04-29T13:56:50;19.30;99.90
40638;DHT22;26336;44.696;10.622;2023-04-29T13:59:54;19.30;99.90
40638;DHT22;26336;44.696;10.622;2023-04-29T14:03:06;19.20;99.90
40638;DHT22;26336;44.696;10.622;2023-04-29T14:06:10;19.10;99.90
40638;DHT22;26336;44.696;10.622;2023-04-29T14:09:14;19.10;99.90
40638;DHT22;26336;44.696;10.622;2023-04-29T14:12:19;19.10;99.90
40638;DHT22;26336;44.696;10.622;2023-04-29T14:15:26;19.00;99.90
40638;DHT22;26336;44.696;10.622;2023-04-29T14:18:41;19.00;99.90
40638;DHT22;26336;44.696;10.622;2023-04-29T14:21:45;19.00;99.90
40638;DHT22;26336;44.696;10.622;2023-04-29T14:24:51;19.00;99.90
40638;DHT22;26336;44.696;10.622;2023-04-29T14:27:54;19.00;99.90
40638;DHT22;26336;44.696;10.622;2023-04-29T14:30:58;19.00;99.90
40638;DHT22;26336;44.696;10.622;2023-04-29T14:34:03;19.10;99.90
40638;DHT22;26336;44.696;10.622;2023-04-29T14:37:14;19.10;99.90
40638;DHT22;26336;44.696;10.622;2023-04-29T14:40:34;19.10;99.90
40638;DHT22;26336;44.696;10.622;2023-04-29T14:47:38;19.10;99.90
40638;DHT22;26336;44.696;10.622;2023-04-29T14:50:42;19.10;99.90
40638;DHT22;26336;44.696;10.622;2023-04-29T14:53:46;19.10;99.90
40638;DHT22;26336;44.696;10.622;2023-04-29T14:56:50;19.10;99.90
40638;DHT22;26336;44.696;10.622;2023-04-29T14:59:54;19.10;99.90
40638;DHT22;26336;44.696;10.622;2023-04-29T15:02:58;19.10;99.90
40638;DHT22;26336;44.696;10.622;2023-04-29T15:06:02;19.10;99.90
40638;DHT22;26336;44.696;10.622;2023-04-29T15:09:07;19.10;99.90
40638;DHT22;26336;44.696;10.622;2023-04-29T15:12:13;19.10;99.90
40638;DHT22;26336;44.696;10.622;2023-04-29T15:15:22;19.10;99.90
40638;DHT22;26336;44.696;10.622;2023-04-29T15:18:25;19.10;99.90
40638;DHT22;26336;44.696;10.622;2023-04-29T15:21:29;19.10;99.90
40638;DHT22;26336;44.696;10.622;2023-04-29T15:24:37;19.10;99.90
40638;DHT22;26336;44.696;10.622;2023-04-29T15:27:40;19.10;99.90
40638;DHT22;26336;44.696;10.622;2023-04-29T15:30:44;19.10;99.90
40638;DHT22;26336;44.696;10.622;2023-04-29T15:33:51;19.10;99.90
40638;DHT22;26336;44.696;10.622;2023-04-29T15:36:55;19.10;99.90
40638;DHT22;26336;44.696;10.622;2023-04-29T15:40:00;19.10;99.90
40638;DHT22;26336;44.696;10.622;2023-04-29T15:43:04;19.10;99.90
40638;DHT22;26336;44.696;10.622;2023-04-29T15:46:08;19.10;99.90
40638;DHT22;26336;44.696;10.622;2023-04-29T15:49:11;19.10;99.90
40638;DHT22;26336;44.696;10.622;2023-04-29T15:52:15;19.10;99.90
40638;DHT22;26336;44.696;10.622;2023-04-29T15:55:19;19.10;99.90
40638;DHT22;26336;44.696;10.622;2023-04-29T15:58:23;19.10;99.90
40638;DHT22;26336;44.696;10.622;2023-04-29T16:01:27;19.00;99.90
40638;DHT22;26336;44.696;10.622;2023-04-29T16:04:31;19.00;99.90
40638;DHT22;26336;44.696;10.622;2023-04-29T16:07:35;19.10;99.90
40638;DHT22;26336;44.696;10.622;2023-04-29T16:10:39;19.00;99.90
40638;DHT22;26336;44.696;10.622;2023-04-29T16:13:43;19.00;99.90
40638;DHT22;26336;44.696;10.622;2023-04-29T16:16:47;19.00;99.90
40638;DHT22;26336;44.696;10.622;2023-04-29T16:19:53;19.00;99.90
40638;DHT22;26336;44.696;10.622;2023-04-29T16:22:57;19.00;99.90
40638;DHT22;26336;44.696;10.622;2023-04-29T16:26:08;19.00;99.90
40638;DHT22;26336;44.696;10.622;2023-04-29T16:29:16;19.00;99.90
40638;DHT22;26336;44.696;10.622;2023-04-29T16:32:20;19.00;99.90
40638;DHT22;26336;44.696;10.622;2023-04-29T16:35:25;19.00;99.90
40638;DHT22;26336;44.696;10.622;2023-04-29T16:38:31;19.00;99.90
40638;DHT22;26336;44.696;10.622;2023-04-29T16:41:35;18.90;99.90
40638;DHT22;26336;44.696;10.622;2023-04-29T16:44:39;18.90;99.90
40638;DHT22;26336;44.696;10.622;2023-04-29T16:47:43;18.90;99.90
40638;DHT22;26336;44.696;10.622;2023-04-29T16:50:47;18.90;99.90
40638;DHT22;26336;44.696;10.622;2023-04-29T16:53:51;18.90;99.90
40638;DHT22;26336;44.696;10.622;2023-04-29T16:56:55;18.90;99.90
40638;DHT22;26336;44.696;10.622;2023-04-29T16:59:59;18.90;99.90
40638;DHT22;26336;44.696;10.622;2023-04-29T17:03:03;18.90;99.90
40638;DHT22;26336;44.696;10.622;2023-04-29T17:06:07;18.90;99.90
40638;DHT22;26336;44.696;10.622;2023-04-29T17:09:11;18.80;99.90
40638;DHT22;26336;44.696;10.622;2023-04-29T17:12:15;18.80;99.90
40638;DHT22;26336;44.696;10.622;2023-04-29T17:15:18;18.90;99.90
40638;DHT22;26336;44.696;10.622;2023-04-29T17:18:22;18.80;99.90
40638;DHT22;26336;44.696;10.622;2023-04-29T17:21:27;18.80;99.90
40638;DHT22;26336;44.696;10.622;2023-04-29T17:24:33;18.80;99.90
40638;DHT22;26336;44.696;10.622;2023-04-29T17:27:36;18.80;99.90
40638;DHT22;26336;44.696;10.622;2023-04-29T17:30:43;18.80;99.90
40638;DHT22;26336;44.696;10.622;2023-04-29T17:33:47;18.80;99.90
40638;DHT22;26336;44.696;10.622;2023-04-29T17:37:08;18.80;99.90
40638;DHT22;26336;44.696;10.622;2023-04-29T17:40:12;18.70;99.90
40638;DHT22;26336;44.696;10.622;2023-04-29T17:43:15;18.80;99.90
40638;DHT22;26336;44.696;10.622;2023-04-29T17:46:19;18.70;99.90
40638;DHT22;26336;44.696;10.622;2023-04-29T17:49:23;18.70;99.90
40638;DHT22;26336;44.696;10.622;2023-04-29T17:52:27;18.70;99.90
40638;DHT22;26336;44.696;10.622;2023-04-29T17:55:31;18.70;99.90
40638;DHT22;26336;44.696;10.622;2023-04-29T17:58:37;18.60;99.90
40638;DHT22;26336;44.696;10.622;2023-04-29T18:01:41;18.70;99.90
40638;DHT22;26336;44.696;10.622;2023-04-29T18:04:48;18.60;99.90
40638;DHT22;26336;44.696;10.622;2023-04-29T18:07:54;18.70;99.90
40638;DHT22;26336;44.696;10.622;2023-04-29T18:10:59;18.60;99.90
40638;DHT22;26336;44.696;10.622;2023-04-29T18:14:03;18.60;99.90
40638;DHT22;26336;44.696;10.622;2023-04-29T18:17:25;18.60;99.90
40638;DHT22;26336;44.696;10.622;2023-04-29T18:20:30;18.60;99.90
40638;DHT22;26336;44.696;10.622;2023-04-29T18:23:34;18.60;99.90
40638;DHT22;26336;44.696;10.622;2023-04-29T18:26:42;18.50;99.90
40638;DHT22;26336;44.696;10.622;2023-04-29T18:29:49;18.50;99.90
40638;DHT22;26336;44.696;10.622;2023-04-29T18:32:53;18.50;99.90
40638;DHT22;26336;44.696;10.622;2023-04-29T18:35:59;18.50;99.90
40638;DHT22;26336;44.696;10.622;2023-04-29T18:39:03;18.50;99.90
40638;DHT22;26336;44.696;10.622;2023-04-29T18:42:07;18.50;99.90
40638;DHT22;26336;44.696;10.622;2023-04-29T18:45:11;18.50;99.90
40638;DHT22;26336;44.696;10.622;2023-04-29T18:48:15;18.50;99.90
40638;DHT22;26336;44.696;10.622;2023-04-29T18:51:19;18.50;99.90
40638;DHT22;26336;44.696;10.622;2023-04-29T18:54:25;18.50;99.90
40638;DHT22;26336;44.696;10.622;2023-04-29T18:57:30;18.50;99.90
40638;DHT22;26336;44.696;10.622;2023-04-29T19:00:33;18.50;99.90
40638;DHT22;26336;44.696;10.622;2023-04-29T19:03:41;18.40;99.90
40638;DHT22;26336;44.696;10.622;2023-04-29T19:06:46;18.40;99.90
40638;DHT22;26336;44.696;10.622;2023-04-29T19:09:50;18.40;99.90
40638;DHT22;26336;44.696;10.622;2023-04-29T19:12:54;18.40;99.90
40638;DHT22;26336;44.696;10.622;2023-04-29T19:16:02;18.30;99.90
40638;DHT22;26336;44.696;10.622;2023-04-29T19:19:06;18.30;99.90
40638;DHT22;26336;44.696;10.622;2023-04-29T19:22:10;18.20;99.90
40638;DHT22;26336;44.696;10.622;2023-04-29T19:25:16;18.20;99.90
40638;DHT22;26336;44.696;10.622;2023-04-29T19:28:20;18.20;99.90
40638;DHT22;26336;44.696;10.622;2023-04-29T19:31:25;18.20;99.90
40638;DHT22;26336;44.696;10.622;2023-04-29T19:34:32;18.20;99.90
40638;DHT22;26336;44.696;10.622;2023-04-29T19:37:36;18.20;99.90
40638;DHT22;26336;44.696;10.622;2023-04-29T19:40:40;18.10;99.90
40638;DHT22;26336;44.696;10.622;2023-04-29T19:43:44;18.10;99.90
40638;DHT22;26336;44.696;10.622;2023-04-29T19:46:51;18.10;99.90